createdAt,value
2023-04-15T00:02:07.392Z,96548.38
2023-04-15T00:05:12.871Z,96548.34
2023-04-15T00:08:16.934Z,96544.13
2023-04-15T00:11:21.002Z,96548.97
2023-04-15T00:14:25.247Z,96546.59
2023-04-15T00:17:29.428Z,96546.41
2023-04-15T00:20:33.447Z,96548.97
2023-04-15T00:23:37.335Z,96549.47
2023-04-15T00:26:41.440Z,96547.38
2023-04-15T00:29:45.776Z,96548.34
2023-04-15T00:32:50.010Z,96546.63
2023-04-15T00:35:53.779Z,96551.94
2023-04-15T00:38:58.082Z,96546.09
2023-04-15T00:42:01.984Z,96541.78
2023-04-15T00:45:05.976Z,96549.09
2023-04-15T00:48:09.849Z,96554.53
2023-04-15T00:51:13.691Z,96548.97
2023-04-15T00:54:17.586Z,96545.78
2023-04-15T00:57:21.682Z,96550.97
2023-04-15T01:00:25.806Z,96544.06
2023-04-15T01:03:30.050Z,96542.25
2023-04-15T01:06:33.660Z,96537.41
2023-04-15T01:09:37.847Z,96545.63
2023-04-15T01:12:42.185Z,96539.72
2023-04-15T01:15:46.200Z,96538.81
2023-04-15T01:18:50.035Z,96543.19
2023-04-15T01:21:53.975Z,96548.97
2023-04-15T01:24:58.098Z,96537.50
2023-04-15T01:28:02.087Z,96548.63
2023-04-15T01:31:06.008Z,96556.88
2023-04-15T01:34:10.030Z,96550.81
2023-04-15T01:37:14.018Z,96547.47
2023-04-15T01:40:18.051Z,96544.69
2023-04-15T01:43:22.360Z,96542.75
2023-04-15T01:46:26.214Z,96537.59
2023-04-15T01:49:29.990Z,96543.38
2023-04-15T01:52:34.096Z,96537.13
2023-04-15T01:55:38.006Z,96532.59
2023-04-15T01:58:41.968Z,96532.50
2023-04-15T02:01:46.140Z,96530.53
2023-04-15T02:04:50.209Z,96532.03
2023-04-15T02:07:54.147Z,96532.19
2023-04-15T02:10:58.173Z,96536.47
2023-04-15T02:14:02.251Z,96532.03
2023-04-15T02:17:06.306Z,96536.09
2023-04-15T02:20:10.460Z,96533.91
2023-04-15T02:23:14.520Z,96525.66
2023-04-15T02:26:18.381Z,96532.44
2023-04-15T02:29:22.300Z,96526.13
2023-04-15T02:32:26.230Z,96524.53
2023-04-15T02:35:30.142Z,96518.13
2023-04-15T02:38:34.167Z,96519.75
2023-04-15T02:41:37.886Z,96515.22
2023-04-15T02:44:42.201Z,96518.69
2023-04-15T02:47:46.407Z,96514.78
2023-04-15T02:50:50.522Z,96523.09
2023-04-15T02:53:54.585Z,96516.78
2023-04-15T02:56:58.572Z,96516.84
2023-04-15T03:00:02.554Z,96522.66
2023-04-15T03:03:06.979Z,96525.44
2023-04-15T03:06:10.549Z,96521.13
2023-04-15T03:09:14.519Z,96521.94
2023-04-15T03:12:18.629Z,96524.50
2023-04-15T03:15:22.750Z,96517.81
2023-04-15T03:18:26.817Z,96514.53
2023-04-15T03:21:33.734Z,96522.84
2023-04-15T03:24:37.737Z,96516.69
2023-04-15T03:27:41.982Z,96522.06
2023-04-15T03:30:46.230Z,96513.84
2023-04-15T03:33:50.006Z,96514.06
2023-04-15T03:36:53.895Z,96514.63
2023-04-15T03:39:58.061Z,96512.66
2023-04-15T03:43:01.960Z,96504.91
2023-04-15T03:46:05.932Z,96514.22
2023-04-15T03:49:10.005Z,96510.69
2023-04-15T03:52:13.948Z,96507.44
2023-04-15T03:55:17.814Z,96511.84
2023-04-15T03:58:23.149Z,96519.53
2023-04-15T04:01:26.948Z,96513.69
2023-04-15T04:04:31.264Z,96513.41
2023-04-15T04:07:35.056Z,96512.66
2023-04-15T04:10:39.186Z,96517.66
2023-04-15T04:13:43.373Z,96509.59
2023-04-15T04:16:47.490Z,96510.69
2023-04-15T04:19:51.567Z,96513.66
2023-04-15T04:22:55.577Z,96507.44
2023-04-15T04:25:59.596Z,96523.06
2023-04-15T04:29:03.873Z,96522.06
2023-04-15T04:32:08.376Z,96521.31
2023-04-15T04:35:12.217Z,96520.66
2023-04-15T04:38:16.184Z,96515.22
2023-04-15T04:41:20.109Z,96517.81
2023-04-15T04:44:24.294Z,96508.72
2023-04-15T04:47:28.490Z,96510.28
2023-04-15T04:50:32.250Z,96509.19
2023-04-15T04:53:36.172Z,96505.03
2023-04-15T04:56:40.410Z,96493.97
2023-04-15T04:59:44.587Z,96502.03
2023-04-15T05:02:48.650Z,96499.41
2023-04-15T05:05:52.746Z,96495.78
2023-04-15T05:08:57.207Z,96496.22
2023-04-15T05:12:01.091Z,96497.38
2023-04-15T05:15:04.918Z,96497.44
2023-04-15T05:18:08.866Z,96502.44
2023-04-15T05:21:12.984Z,96492.03
2023-04-15T05:24:17.146Z,96497.47
2023-04-15T05:27:21.065Z,96496.72
2023-04-15T05:30:25.026Z,96495.41
2023-04-15T05:33:29.087Z,96496.50
2023-04-15T05:36:32.946Z,96483.88
2023-04-15T05:39:37.127Z,96480.50
2023-04-15T05:42:41.260Z,96482.28
2023-04-15T05:45:45.365Z,96487.34
2023-04-15T05:48:49.579Z,96493.50
2023-04-15T05:51:53.669Z,96499.38
2023-04-15T05:54:57.798Z,96499.00
2023-04-15T05:58:01.767Z,96493.91
2023-04-15T06:01:05.744Z,96499.81
2023-04-15T06:04:09.779Z,96499.66
2023-04-15T06:07:13.866Z,96504.19
2023-04-15T06:10:17.922Z,96504.69
2023-04-15T06:13:21.675Z,96499.13
2023-04-15T06:16:25.855Z,96508.56
2023-04-15T06:19:30.197Z,96522.97
2023-04-15T06:22:34.316Z,96522.47
2023-04-15T06:25:38.445Z,96527.44
2023-04-15T06:28:42.312Z,96523.41
2023-04-15T06:31:46.179Z,96527.44
2023-04-15T06:34:50.321Z,96530.63
2023-04-15T06:37:54.647Z,96533.19
2023-04-15T06:40:58.139Z,96533.41
2023-04-15T06:44:02.356Z,96544.03
2023-04-15T06:47:06.346Z,96530.69
2023-04-15T06:50:10.535Z,96537.13
2023-04-15T06:53:14.689Z,96542.75
2023-04-15T06:56:18.737Z,96538.88
2023-04-15T06:59:22.755Z,96548.94
2023-04-15T07:02:27.151Z,96544.69
2023-04-15T07:05:31.620Z,96545.53
2023-04-15T07:08:35.169Z,96540.13
2023-04-15T07:11:39.226Z,96537.41
2023-04-15T07:14:43.297Z,96540.38
2023-04-15T07:17:50.529Z,96538.09
2023-04-15T07:20:54.986Z,96534.75
2023-04-15T07:23:58.861Z,96535.94
2023-04-15T07:27:02.747Z,96536.69
2023-04-15T07:30:06.843Z,96537.47
2023-04-15T07:33:11.218Z,96537.00
2023-04-15T07:36:15.388Z,96536.34
2023-04-15T07:39:19.440Z,96551.09
2023-04-15T07:42:23.420Z,96540.88
2023-04-15T07:45:27.454Z,96546.97
2023-04-15T07:48:31.422Z,96547.59
2023-04-15T07:51:35.503Z,96548.47
2023-04-15T07:54:39.604Z,96545.00
2023-04-15T07:57:43.344Z,96548.28
2023-04-15T08:00:47.466Z,96546.22
2023-04-15T08:03:51.860Z,96541.72
2023-04-15T08:06:55.818Z,96538.94
2023-04-15T08:09:59.803Z,96542.72
2023-04-15T08:13:04.101Z,96545.66
2023-04-15T08:16:08.004Z,96540.94
2023-04-15T08:19:12.156Z,96544.06
2023-04-15T08:22:18.183Z,96549.16
2023-04-15T08:25:22.384Z,96547.22
2023-04-15T08:28:26.399Z,96552.00
2023-04-15T08:31:30.814Z,96555.22
2023-04-15T08:34:35.043Z,96565.47
2023-04-15T08:37:39.276Z,96562.34
2023-04-15T08:40:43.271Z,96562.59
2023-04-15T08:43:47.808Z,96560.22
2023-04-15T08:46:51.735Z,96563.44
2023-04-15T08:49:55.733Z,96570.03
2023-04-15T08:52:59.667Z,96564.56
2023-04-15T08:56:03.861Z,96571.53
2023-04-15T08:59:08.000Z,96582.25
2023-04-15T09:02:12.259Z,96582.72
2023-04-15T09:05:16.064Z,96583.03
2023-04-15T09:08:19.713Z,96586.41
2023-04-15T09:11:23.813Z,96596.34
2023-04-15T09:14:27.849Z,96606.97
2023-04-15T09:17:31.901Z,96608.25
2023-04-15T09:20:35.759Z,96610.09
2023-04-15T09:23:39.698Z,96616.16
2023-04-15T09:26:43.907Z,96617.91
2023-04-15T09:29:47.988Z,96626.63
2023-04-15T09:32:52.039Z,96621.00
2023-04-15T09:35:56.018Z,96628.03
2023-04-15T09:38:59.897Z,96630.72
2023-04-15T09:42:04.891Z,96636.31
2023-04-15T09:45:11.185Z,96644.44
2023-04-15T09:48:20.219Z,96652.25
2023-04-15T09:51:24.453Z,96657.25
2023-04-15T09:57:52.257Z,96663.34
2023-04-15T10:04:30.049Z,96672.59
2023-04-15T10:14:36.259Z,96677.03
2023-04-15T10:17:40.010Z,96693.44
2023-04-15T10:20:44.080Z,96688.19
2023-04-15T10:23:47.810Z,96705.59
2023-04-15T10:26:52.237Z,96706.63
2023-04-15T10:29:58.745Z,96706.47
2023-04-15T10:33:15.090Z,96712.66
2023-04-15T10:36:26.969Z,96713.00
2023-04-15T10:39:53.527Z,96710.19
2023-04-15T10:43:06.092Z,96706.03
2023-04-15T10:46:14.965Z,96715.78
2023-04-15T10:49:23.715Z,96709.53
2023-04-15T10:52:27.755Z,96712.53
2023-04-15T10:55:32.983Z,96723.09
2023-04-15T10:58:38.497Z,96725.53
2023-04-15T11:01:42.657Z,96727.28
2023-04-15T11:04:47.261Z,96732.88
2023-04-15T11:07:52.172Z,96732.00
2023-04-15T11:11:00.843Z,96744.56
2023-04-15T11:14:09.449Z,96747.34
2023-04-15T11:17:15.852Z,96746.78
2023-04-15T11:20:24.724Z,96745.59
2023-04-15T11:23:28.854Z,96749.06
2023-04-15T11:26:35.598Z,96755.69
2023-04-15T11:29:39.705Z,96753.47
2023-04-15T11:35:38.375Z,96766.66
2023-04-15T11:38:44.842Z,96765.19
2023-04-15T11:41:51.339Z,96759.16
2023-04-15T11:44:55.834Z,96763.22
2023-04-15T11:48:00.039Z,96768.34
2023-04-15T11:51:04.397Z,96777.59
2023-04-15T11:54:08.434Z,96777.03
2023-04-15T11:57:12.266Z,96784.09
2023-04-15T12:00:16.203Z,96786.25
2023-04-15T12:03:20.112Z,96793.94
2023-04-15T12:06:26.946Z,96789.06
2023-04-15T12:09:34.577Z,96800.06
2023-04-15T12:12:38.818Z,96800.44
2023-04-15T12:15:42.896Z,96805.91
2023-04-15T12:22:15.867Z,96808.88
2023-04-15T12:25:21.833Z,96822.78
2023-04-15T12:31:57.235Z,96828.88
2023-04-15T12:41:52.211Z,96844.78
2023-04-15T12:45:06.834Z,96844.59
2023-04-15T12:48:10.802Z,96848.47
2023-04-15T12:51:40.473Z,96848.25
2023-04-15T12:54:42.732Z,96852.09
2023-04-15T12:57:51.411Z,96856.63
2023-04-15T13:00:57.160Z,96860.88
2023-04-15T13:04:10.056Z,96867.00
2023-04-15T13:26:16.218Z,96891.84
2023-04-15T13:36:06.867Z,96908.47
2023-04-15T13:50:03.272Z,96925.25
2023-04-15T13:53:38.513Z,96924.41
2023-04-15T13:56:39.130Z,96925.91
2023-04-15T13:59:48.353Z,96925.78
2023-04-15T14:02:57.791Z,96925.72
2023-04-15T14:07:46.357Z,96927.31
2023-04-15T14:16:23.484Z,96949.03
2023-04-15T14:19:27.199Z,96951.84
2023-04-15T14:22:31.021Z,96941.19
2023-04-15T14:25:35.156Z,96952.34
2023-04-15T14:28:40.162Z,96957.91
2023-04-15T14:31:44.096Z,96955.00
2023-04-15T14:35:07.403Z,96957.19
2023-04-15T14:38:11.698Z,96961.44
2023-04-15T14:41:15.626Z,96971.13
2023-04-15T14:44:19.764Z,96975.78
2023-04-15T14:47:23.962Z,96973.56
2023-04-15T14:50:28.087Z,96989.94
2023-04-15T14:53:33.431Z,96986.78
2023-04-15T14:56:37.755Z,96991.44
2023-04-15T14:59:41.550Z,96997.97
2023-04-15T15:02:45.569Z,96995.63
2023-04-15T15:05:52.228Z,97004.03
2023-04-15T15:08:58.606Z,97011.66
2023-04-15T15:12:04.213Z,97013.72
2023-04-15T15:15:28.260Z,97014.50
2023-04-15T15:18:35.114Z,97018.63
2023-04-15T15:21:39.217Z,97029.91
2023-04-15T15:24:43.019Z,97036.94
2023-04-15T15:27:46.969Z,97031.22
2023-04-15T15:30:50.678Z,97034.59
2023-04-15T15:33:54.742Z,97041.13
2023-04-15T15:36:59.371Z,97045.16
2023-04-15T15:40:03.185Z,97055.38
2023-04-15T15:43:08.938Z,97057.47
2023-04-15T15:46:13.862Z,97063.28
2023-04-15T15:49:19.341Z,97062.06
2023-04-15T15:52:25.608Z,97066.94
2023-04-15T15:55:29.688Z,97071.19
2023-04-15T15:58:33.489Z,97075.50
2023-04-15T16:01:37.598Z,97081.25
2023-04-15T16:04:41.484Z,97083.78
2023-04-15T16:07:45.600Z,97080.81
2023-04-15T16:10:50.017Z,97087.97
2023-04-15T16:13:57.620Z,97094.16
2023-04-15T16:17:01.707Z,97094.53
2023-04-15T16:20:05.503Z,97103.22
2023-04-15T16:23:09.501Z,97104.34
2023-04-15T16:26:14.566Z,97119.69
2023-04-15T16:29:20.858Z,97112.81
2023-04-15T16:32:28.063Z,97114.00
2023-04-15T16:35:34.033Z,97119.59
2023-04-15T16:38:38.282Z,97124.66
2023-04-15T16:41:42.442Z,97130.94
2023-04-15T16:44:46.458Z,97133.06
2023-04-15T16:47:50.206Z,97144.03
2023-04-15T16:50:54.069Z,97147.44
2023-04-15T16:53:58.052Z,97156.09
2023-04-15T16:57:01.880Z,97160.84
2023-04-15T17:00:05.801Z,97172.03
2023-04-15T17:03:10.150Z,97177.63
2023-04-15T17:06:14.243Z,97190.16
2023-04-15T17:09:18.449Z,97189.91
2023-04-15T17:12:24.196Z,97193.50
2023-04-15T17:15:28.507Z,97195.16
2023-04-15T17:18:32.716Z,97199.72
2023-04-15T17:21:36.909Z,97200.84
2023-04-15T17:24:42.007Z,97198.28
2023-04-15T17:27:46.080Z,97207.88
2023-04-15T17:30:51.617Z,97209.16
2023-04-15T17:34:09.990Z,97210.19
2023-04-15T17:37:15.673Z,97207.03
2023-04-15T17:40:19.434Z,97218.03
2023-04-15T17:43:23.256Z,97235.94
2023-04-15T17:46:27.404Z,97253.34
2023-04-15T17:49:32.727Z,97257.53
2023-04-15T17:52:37.025Z,97266.53
2023-04-15T17:55:42.056Z,97266.84
2023-04-15T17:58:47.450Z,97270.50
2023-04-15T18:01:51.541Z,97278.16
2023-04-15T18:04:57.182Z,97274.97
2023-04-15T18:08:01.701Z,97283.44
2023-04-15T18:11:06.211Z,97283.69
2023-04-15T18:14:15.714Z,97292.50
2023-04-15T18:17:27.608Z,97302.44
2023-04-15T18:20:38.800Z,97309.53
2023-04-15T18:23:42.736Z,97313.53
2023-04-15T18:26:50.748Z,97319.41
2023-04-15T18:29:55.036Z,97325.34
2023-04-15T18:32:59.270Z,97331.63
2023-04-15T18:36:03.405Z,97333.00
2023-04-15T18:39:07.411Z,97340.66
2023-04-15T18:42:12.360Z,97340.44
2023-04-15T18:45:16.540Z,97347.28
2023-04-15T18:48:20.799Z,97350.72
2023-04-15T18:51:32.376Z,97370.41
2023-04-15T18:54:36.413Z,97371.09
2023-04-15T18:57:40.714Z,97374.66
2023-04-15T19:00:46.246Z,97382.41
2023-04-15T19:03:50.227Z,97386.75
2023-04-15T19:06:54.210Z,97400.59
2023-04-15T19:09:58.143Z,97396.94
2023-04-15T19:13:03.240Z,97399.44
2023-04-15T19:16:08.249Z,97399.78
2023-04-15T19:19:12.126Z,97404.81
2023-04-15T19:22:16.132Z,97408.03
2023-04-15T19:25:24.242Z,97424.50
2023-04-15T19:28:28.787Z,97421.75
2023-04-15T19:31:33.115Z,97423.94
2023-04-15T19:37:56.946Z,97430.56
2023-04-15T19:41:00.749Z,97435.84
2023-04-15T19:44:04.969Z,97437.97
2023-04-15T19:47:09.227Z,97437.31
2023-04-15T19:50:13.128Z,97445.75
2023-04-15T19:53:17.043Z,97451.38
2023-04-15T19:56:20.977Z,97450.34
2023-04-15T19:59:24.982Z,97458.69
2023-04-15T20:02:29.304Z,97464.28
2023-04-15T20:05:34.830Z,97465.81
2023-04-15T20:08:43.042Z,97469.59
2023-04-15T20:12:47.997Z,97473.00
2023-04-15T20:15:11.497Z,97481.25
2023-04-15T20:18:15.293Z,97474.72
2023-04-15T20:21:20.820Z,97474.72
2023-04-15T20:24:27.942Z,97466.72
2023-04-15T20:27:32.922Z,97472.66
2023-04-15T20:30:36.895Z,97473.34
2023-04-15T20:33:41.070Z,97465.56
2023-04-15T20:36:45.116Z,97468.47
2023-04-15T20:39:50.031Z,97469.25
2023-04-15T20:42:54.161Z,97476.16
2023-04-15T20:46:04.414Z,97468.28
2023-04-15T20:49:22.000Z,97476.13
2023-04-15T20:52:29.975Z,97475.19
2023-04-15T20:55:35.430Z,97483.84
2023-04-15T20:58:40.856Z,97486.84
2023-04-15T21:01:46.580Z,97483.75
2023-04-15T21:04:50.949Z,97495.06
2023-04-15T21:07:54.881Z,97493.59
2023-04-15T21:11:01.096Z,97491.72
2023-04-15T21:14:06.288Z,97499.38
2023-04-15T21:17:11.332Z,97502.78
2023-04-15T21:20:17.483Z,97500.44
2023-04-15T21:23:21.521Z,97496.09
2023-04-15T21:26:25.939Z,97508.94
2023-04-15T21:29:29.832Z,97514.56
2023-04-15T21:32:33.582Z,97516.53
2023-04-15T21:35:40.504Z,97525.72
2023-04-15T21:38:45.229Z,97535.38
2023-04-15T21:41:49.567Z,97524.91
2023-04-15T21:44:53.390Z,97523.63
2023-04-15T21:48:07.344Z,97517.59
2023-04-15T21:51:12.568Z,97517.97
2023-04-15T21:54:19.892Z,97521.63
2023-04-15T21:57:24.121Z,97526.69
2023-04-15T22:00:28.276Z,97530.53
2023-04-15T22:03:33.470Z,97529.13
2023-04-15T22:06:39.234Z,97529.75
2023-04-15T22:09:44.697Z,97539.91
2023-04-15T22:12:49.957Z,97540.72
2023-04-15T22:15:54.335Z,97536.44
2023-04-15T22:18:59.228Z,97540.44
2023-04-15T22:22:03.245Z,97538.69
2023-04-15T22:25:07.011Z,97533.38
2023-04-15T22:28:11.240Z,97551.13
2023-04-15T22:31:15.256Z,97551.88
2023-04-15T22:34:28.310Z,97546.56
2023-04-15T22:37:32.572Z,97543.25
2023-04-15T22:40:36.715Z,97553.13
2023-04-15T22:43:40.504Z,97554.63
2023-04-15T22:46:44.486Z,97559.50
2023-04-15T22:49:48.593Z,97565.41
2023-04-15T22:52:54.079Z,97566.91
2023-04-15T22:55:58.387Z,97563.16
2023-04-15T22:59:02.374Z,97564.63
2023-04-15T23:02:06.741Z,97563.81
2023-04-15T23:05:11.968Z,97571.00
2023-04-15T23:08:18.777Z,97574.22
2023-04-15T23:11:24.383Z,97582.72
2023-04-15T23:14:30.934Z,97583.81
2023-04-15T23:17:35.083Z,97580.97
2023-04-15T23:20:40.088Z,97581.19
2023-04-15T23:23:44.171Z,97580.41
2023-04-15T23:26:48.082Z,97588.31
2023-04-15T23:29:52.346Z,97593.91
2023-04-15T23:32:56.552Z,97591.75
2023-04-15T23:36:03.365Z,97596.63
2023-04-15T23:39:07.676Z,97593.38
2023-04-15T23:42:12.628Z,97603.91
2023-04-15T23:45:16.933Z,97604.75
2023-04-15T23:48:21.370Z,97607.88
2023-04-15T23:51:25.422Z,97605.47
2023-04-15T23:54:30.282Z,97613.03
2023-04-15T23:57:34.436Z,97611.16
